sensor_id;sensor_type;location;lat;lon;timestamp;temperature;humidity
55992;DHT22;66896;50.924;4.572;2023-02-28T00:00:01;0.30;92.10
55992;DHT22;66896;50.924;4.572;2023-02-28T00:02:33;0.30;92.30
55992;DHT22;66896;50.924;4.572;2023-02-28T00:04:59;0.30;92.30
55992;DHT22;66896;50.924;4.572;2023-02-28T00:07:27;0.30;92.10
55992;DHT22;66896;50.924;4.572;2023-02-28T00:09:53;0.30;92.30
55992;DHT22;66896;50.924;4.572;2023-02-28T00:12:18;0.50;92.30
55992;DHT22;66896;50.924;4.572;2023-02-28T00:14:44;0.30;91.90
55992;DHT22;66896;50.924;4.572;2023-02-28T00:17:09;0.30;92.10
55992;DHT22;66896;50.924;4.572;2023-02-28T00:19:35;0.20;92.00
55992;DHT22;66896;50.924;4.572;2023-02-28T00:22:01;0.20;92.30
55992;DHT22;66896;50.924;4.572;2023-02-28T00:24:26;0.10;92.50
55992;DHT22;66896;50.924;4.572;2023-02-28T00:26:52;0.00;92.70
55992;DHT22;66896;50.924;4.572;2023-02-28T00:29:17;0.10;92.80
55992;DHT22;66896;50.924;4.572;2023-02-28T00:31:43;0.00;93.00
55992;DHT22;66896;50.924;4.572;2023-02-28T00:34:09;0.00;92.90
55992;DHT22;66896;50.924;4.572;2023-02-28T00:36:34;0.00;93.00
55992;DHT22;66896;50.924;4.572;2023-02-28T00:39:00;0.00;93.00
55992;DHT22;66896;50.924;4.572;2023-02-28T00:41:26;0.10;93.10
55992;DHT22;66896;50.924;4.572;2023-02-28T00:43:51;0.10;92.70
55992;DHT22;66896;50.924;4.572;2023-02-28T00:46:17;0.10;92.80
55992;DHT22;66896;50.924;4.572;2023-02-28T00:48:42;0.00;92.80
55992;DHT22;66896;50.924;4.572;2023-02-28T00:51:08;0.00;92.80
55992;DHT22;66896;50.924;4.572;2023-02-28T00:53:34;0.10;92.70
55992;DHT22;66896;50.924;4.572;2023-02-28T00:55:59;0.00;92.70
55992;DHT22;66896;50.924;4.572;2023-02-28T00:58:25;-0.10;93.40
55992;DHT22;66896;50.924;4.572;2023-02-28T01:00:51;-0.10;93.20
55992;DHT22;66896;50.924;4.572;2023-02-28T01:03:18;-0.20;93.10
55992;DHT22;66896;50.924;4.572;2023-02-28T01:05:44;-0.30;93.20
55992;DHT22;66896;50.924;4.572;2023-02-28T01:08:09;-0.30;93.40
55992;DHT22;66896;50.924;4.572;2023-02-28T01:10:35;-0.40;93.50
55992;DHT22;66896;50.924;4.572;2023-02-28T01:13:02;-0.50;93.80
55992;DHT22;66896;50.924;4.572;2023-02-28T01:15:28;-0.50;93.80
55992;DHT22;66896;50.924;4.572;2023-02-28T01:17:54;-0.70;93.70
55992;DHT22;66896;50.924;4.572;2023-02-28T01:20:19;-0.70;94.10
55992;DHT22;66896;50.924;4.572;2023-02-28T01:22:45;-0.70;94.30
55992;DHT22;66896;50.924;4.572;2023-02-28T01:25:11;-0.80;94.40
55992;DHT22;66896;50.924;4.572;2023-02-28T01:27:37;-0.80;94.40
55992;DHT22;66896;50.924;4.572;2023-02-28T01:30:05;-0.80;94.60
55992;DHT22;66896;50.924;4.572;2023-02-28T01:32:31;-0.90;94.80
55992;DHT22;66896;50.924;4.572;2023-02-28T01:34:56;-0.90;94.90
55992;DHT22;66896;50.924;4.572;2023-02-28T01:37:22;-0.80;94.80
55992;DHT22;66896;50.924;4.572;2023-02-28T01:39:47;-0.70;94.80
55992;DHT22;66896;50.924;4.572;2023-02-28T01:42:13;-0.80;94.90
55992;DHT22;66896;50.924;4.572;2023-02-28T01:47:25;-0.80;94.90
55992;DHT22;66896;50.924;4.572;2023-02-28T01:49:51;-0.80;94.70
55992;DHT22;66896;50.924;4.572;2023-02-28T01:52:17;-0.60;94.70
55992;DHT22;66896;50.924;4.572;2023-02-28T01:54:51;-0.60;94.70
55992;DHT22;66896;50.924;4.572;2023-02-28T01:57:19;-0.60;94.90
55992;DHT22;66896;50.924;4.572;2023-02-28T01:59:47;-0.70;95.00
55992;DHT22;66896;50.924;4.572;2023-02-28T02:02:16;-0.60;94.80
55992;DHT22;66896;50.924;4.572;2023-02-28T02:05:06;-0.50;94.70
55992;DHT22;66896;50.924;4.572;2023-02-28T02:07:29;-0.60;94.50
55992;DHT22;66896;50.924;4.572;2023-02-28T02:15:21;-0.70;94.80
55992;DHT22;66896;50.924;4.572;2023-02-28T02:17:49;-0.80;94.60
55992;DHT22;66896;50.924;4.572;2023-02-28T02:20:22;-0.90;94.70
55992;DHT22;66896;50.924;4.572;2023-02-28T02:31:06;-1.10;95.30
55992;DHT22;66896;50.924;4.572;2023-02-28T02:36:14;-1.20;95.40
55992;DHT22;66896;50.924;4.572;2023-02-28T02:41:21;-1.20;95.40
55992;DHT22;66896;50.924;4.572;2023-02-28T02:46:26;-1.40;95.50
55992;DHT22;66896;50.924;4.572;2023-02-28T02:48:54;-1.40;95.70
55992;DHT22;66896;50.924;4.572;2023-02-28T02:51:21;-1.50;95.60
55992;DHT22;66896;50.924;4.572;2023-02-28T02:53:52;-1.50;95.90
55992;DHT22;66896;50.924;4.572;2023-02-28T02:56:21;-1.60;95.80
55992;DHT22;66896;50.924;4.572;2023-02-28T02:58:49;-1.50;95.80
55992;DHT22;66896;50.924;4.572;2023-02-28T03:01:17;-1.50;95.80
55992;DHT22;66896;50.924;4.572;2023-02-28T03:04:10;-1.50;95.90
55992;DHT22;66896;50.924;4.572;2023-02-28T03:06:36;-1.60;95.70
55992;DHT22;66896;50.924;4.572;2023-02-28T03:09:02;-1.70;95.80
55992;DHT22;66896;50.924;4.572;2023-02-28T03:11:30;-1.70;96.00
55992;DHT22;66896;50.924;4.572;2023-02-28T03:23:56;-1.80;96.20
55992;DHT22;66896;50.924;4.572;2023-02-28T03:26:25;-1.90;96.20
55992;DHT22;66896;50.924;4.572;2023-02-28T03:31:27;-2.10;96.50
55992;DHT22;66896;50.924;4.572;2023-02-28T03:36:27;-1.90;96.40
55992;DHT22;66896;50.924;4.572;2023-02-28T03:41:21;-2.10;96.30
55992;DHT22;66896;50.924;4.572;2023-02-28T03:43:53;-2.10;96.20
55992;DHT22;66896;50.924;4.572;2023-02-28T03:46:19;-2.10;96.10
55992;DHT22;66896;50.924;4.572;2023-02-28T03:49:02;-2.20;96.10
55992;DHT22;66896;50.924;4.572;2023-02-28T03:51:29;-2.30;96.60
55992;DHT22;66896;50.924;4.572;2023-02-28T03:53:57;-2.30;96.90
55992;DHT22;66896;50.924;4.572;2023-02-28T03:56:34;-2.30;97.20
55992;DHT22;66896;50.924;4.572;2023-02-28T04:01:47;-2.30;97.30
55992;DHT22;66896;50.924;4.572;2023-02-28T04:04:14;-2.40;97.50
55992;DHT22;66896;50.924;4.572;2023-02-28T04:06:39;-2.40;97.60
55992;DHT22;66896;50.924;4.572;2023-02-28T04:09:05;-2.30;97.50
55992;DHT22;66896;50.924;4.572;2023-02-28T04:11:38;-2.30;97.30
55992;DHT22;66896;50.924;4.572;2023-02-28T04:14:05;-2.30;97.20
55992;DHT22;66896;50.924;4.572;2023-02-28T04:16:31;-2.40;97.30
55992;DHT22;66896;50.924;4.572;2023-02-28T04:18:56;-2.60;97.80
55992;DHT22;66896;50.924;4.572;2023-02-28T04:23:58;-2.40;98.40
55992;DHT22;66896;50.924;4.572;2023-02-28T04:26:32;-2.20;98.20
55992;DHT22;66896;50.924;4.572;2023-02-28T04:28:58;-2.10;97.70
55992;DHT22;66896;50.924;4.572;2023-02-28T04:31:24;-1.90;97.50
55992;DHT22;66896;50.924;4.572;2023-02-28T04:33:50;-1.90;97.30
55992;DHT22;66896;50.924;4.572;2023-02-28T04:36:15;-1.80;97.30
55992;DHT22;66896;50.924;4.572;2023-02-28T04:38:43;-1.80;97.20
55992;DHT22;66896;50.924;4.572;2023-02-28T04:41:08;-1.80;97.20
55992;DHT22;66896;50.924;4.572;2023-02-28T04:43:34;-1.90;97.20
55992;DHT22;66896;50.924;4.572;2023-02-28T04:46:01;-1.90;97.20
55992;DHT22;66896;50.924;4.572;2023-02-28T04:48:27;-2.00;97.20
55992;DHT22;66896;50.924;4.572;2023-02-28T04:50:53;-1.80;97.30
55992;DHT22;66896;50.924;4.572;2023-02-28T04:53:18;-1.70;97.20
55992;DHT22;66896;50.924;4.572;2023-02-28T04:55:44;-1.70;97.20
55992;DHT22;66896;50.924;4.572;2023-02-28T04:58:10;-1.70;97.20
55992;DHT22;66896;50.924;4.572;2023-02-28T05:00:35;-1.50;97.00
55992;DHT22;66896;50.924;4.572;2023-02-28T05:03:01;-1.40;96.70
55992;DHT22;66896;50.924;4.572;2023-02-28T05:05:28;-1.40;96.80
55992;DHT22;66896;50.924;4.572;2023-02-28T05:07:53;-1.90;97.50
55992;DHT22;66896;50.924;4.572;2023-02-28T05:10:21;-2.00;98.70
55992;DHT22;66896;50.924;4.572;2023-02-28T05:12:47;-1.70;98.50
55992;DHT22;66896;50.924;4.572;2023-02-28T05:15:14;-1.50;98.30
55992;DHT22;66896;50.924;4.572;2023-02-28T05:17:40;-1.30;98.00
55992;DHT22;66896;50.924;4.572;2023-02-28T05:20:06;-1.30;97.60
55992;DHT22;66896;50.924;4.572;2023-02-28T05:22:32;-1.10;97.30
55992;DHT22;66896;50.924;4.572;2023-02-28T05:24:57;-1.00;97.10
55992;DHT22;66896;50.924;4.572;2023-02-28T05:27:23;-1.00;97.00
55992;DHT22;66896;50.924;4.572;2023-02-28T05:29:49;-0.90;96.80
55992;DHT22;66896;50.924;4.572;2023-02-28T05:32:14;-0.70;96.30
55992;DHT22;66896;50.924;4.572;2023-02-28T05:34:40;-0.80;96.40
55992;DHT22;66896;50.924;4.572;2023-02-28T05:37:06;-0.70;96.20
55992;DHT22;66896;50.924;4.572;2023-02-28T05:39:36;-0.70;96.60
55992;DHT22;66896;50.924;4.572;2023-02-28T05:42:01;-0.60;96.50
55992;DHT22;66896;50.924;4.572;2023-02-28T05:44:27;-0.40;96.00
55992;DHT22;66896;50.924;4.572;2023-02-28T05:46:52;-0.30;95.90
55992;DHT22;66896;50.924;4.572;2023-02-28T05:49:18;-0.40;95.60
55992;DHT22;66896;50.924;4.572;2023-02-28T05:51:43;-0.40;95.80
55992;DHT22;66896;50.924;4.572;2023-02-28T05:54:09;-0.30;95.90
55992;DHT22;66896;50.924;4.572;2023-02-28T05:56:35;-0.30;95.80
55992;DHT22;66896;50.924;4.572;2023-02-28T05:59:02;-0.30;95.80
55992;DHT22;66896;50.924;4.572;2023-02-28T06:01:38;-0.30;95.90
55992;DHT22;66896;50.924;4.572;2023-02-28T06:04:05;-0.50;96.40
55992;DHT22;66896;50.924;4.572;2023-02-28T06:06:30;-0.40;96.60
55992;DHT22;66896;50.924;4.572;2023-02-28T06:08:56;-0.20;96.40
55992;DHT22;66896;50.924;4.572;2023-02-28T06:11:22;-0.10;96.10
55992;DHT22;66896;50.924;4.572;2023-02-28T06:13:56;-0.10;95.90
55992;DHT22;66896;50.924;4.572;2023-02-28T06:16:22;0.00;96.10
55992;DHT22;66896;50.924;4.572;2023-02-28T06:18:48;0.10;95.70
55992;DHT22;66896;50.924;4.572;2023-02-28T06:21:13;0.10;95.60
55992;DHT22;66896;50.924;4.572;2023-02-28T06:23:39;0.20;95.50
55992;DHT22;66896;50.924;4.572;2023-02-28T06:26:04;0.20;95.20
55992;DHT22;66896;50.924;4.572;2023-02-28T06:28:30;0.30;95.10
55992;DHT22;66896;50.924;4.572;2023-02-28T06:30:56;0.40;95.00
55992;DHT22;66896;50.924;4.572;2023-02-28T06:33:22;0.50;94.90
55992;DHT22;66896;50.924;4.572;2023-02-28T06:35:51;0.40;94.90
55992;DHT22;66896;50.924;4.572;2023-02-28T06:38:17;0.60;94.60
55992;DHT22;66896;50.924;4.572;2023-02-28T06:40:43;0.70;94.20
55992;DHT22;66896;50.924;4.572;2023-02-28T06:43:09;0.80;93.90
55992;DHT22;66896;50.924;4.572;2023-02-28T06:45:42;0.80;93.70
55992;DHT22;66896;50.924;4.572;2023-02-28T06:48:07;0.70;93.90
55992;DHT22;66896;50.924;4.572;2023-02-28T06:50:33;0.80;93.90
55992;DHT22;66896;50.924;4.572;2023-02-28T06:52:59;0.90;93.80
55992;DHT22;66896;50.924;4.572;2023-02-28T06:55:25;0.90;93.70
55992;DHT22;66896;50.924;4.572;2023-02-28T06:57:50;1.00;93.80
55992;DHT22;66896;50.924;4.572;2023-02-28T07:00:16;1.10;93.70
55992;DHT22;66896;50.924;4.572;2023-02-28T07:02:41;1.10;93.50
55992;DHT22;66896;50.924;4.572;2023-02-28T07:05:07;1.20;93.30
55992;DHT22;66896;50.924;4.572;2023-02-28T07:07:33;1.20;93.10
55992;DHT22;66896;50.924;4.572;2023-02-28T07:09:59;1.30;93.20
55992;DHT22;66896;50.924;4.572;2023-02-28T07:12:25;1.50;92.50
55992;DHT22;66896;50.924;4.572;2023-02-28T07:14:50;1.40;92.50
55992;DHT22;66896;50.924;4.572;2023-02-28T07:17:16;1.20;93.40
55992;DHT22;66896;50.924;4.572;2023-02-28T07:19:41;1.40;93.10
55992;DHT22;66896;50.924;4.572;2023-02-28T07:22:07;1.40;92.80
55992;DHT22;66896;50.924;4.572;2023-02-28T07:24:33;1.40;92.70
55992;DHT22;66896;50.924;4.572;2023-02-28T07:26:59;1.50;92.70
55992;DHT22;66896;50.924;4.572;2023-02-28T07:29:25;1.50;92.70
55992;DHT22;66896;50.924;4.572;2023-02-28T07:31:50;1.60;92.40
55992;DHT22;66896;50.924;4.572;2023-02-28T07:34:19;1.40;92.00
55992;DHT22;66896;50.924;4.572;2023-02-28T07:36:45;1.60;92.00
55992;DHT22;66896;50.924;4.572;2023-02-28T07:39:11;1.70;91.80
55992;DHT22;66896;50.924;4.572;2023-02-28T07:41:36;1.80;91.50
55992;DHT22;66896;50.924;4.572;2023-02-28T07:44:11;1.90;91.20
55992;DHT22;66896;50.924;4.572;2023-02-28T07:46:37;2.10;90.70
55992;DHT22;66896;50.924;4.572;2023-02-28T07:49:03;2.30;90.10
55992;DHT22;66896;50.924;4.572;2023-02-28T07:51:29;2.40;88.80
55992;DHT22;66896;50.924;4.572;2023-02-28T07:53:54;2.40;88.90
55992;DHT22;66896;50.924;4.572;2023-02-28T07:56:20;2.30;88.70
55992;DHT22;66896;50.924;4.572;2023-02-28T07:58:46;2.40;88.30
55992;DHT22;66896;50.924;4.572;2023-02-28T08:01:11;2.50;87.80
55992;DHT22;66896;50.924;4.572;2023-02-28T08:03:37;2.50;86.40
55992;DHT22;66896;50.924;4.572;2023-02-28T08:06:04;2.60;87.30
55992;DHT22;66896;50.924;4.572;2023-02-28T08:08:29;2.60;84.50
55992;DHT22;66896;50.924;4.572;2023-02-28T08:11:02;2.60;85.20
55992;DHT22;66896;50.924;4.572;2023-02-28T08:13:28;2.70;84.50
55992;DHT22;66896;50.924;4.572;2023-02-28T08:15:54;2.80;83.10
55992;DHT22;66896;50.924;4.572;2023-02-28T08:18:21;2.90;83.30
55992;DHT22;66896;50.924;4.572;2023-02-28T08:20:47;2.90;81.80
55992;DHT22;66896;50.924;4.572;2023-02-28T08:23:12;3.10;80.20
55992;DHT22;66896;50.924;4.572;2023-02-28T08:25:38;3.10;80.00
55992;DHT22;66896;50.924;4.572;2023-02-28T08:28:03;3.20;80.20
55992;DHT22;66896;50.924;4.572;2023-02-28T08:30:29;3.20;80.00
55992;DHT22;66896;50.924;4.572;2023-02-28T08:32:54;3.20;79.10
55992;DHT22;66896;50.924;4.572;2023-02-28T08:35:20;3.10;80.40
55992;DHT22;66896;50.924;4.572;2023-02-28T08:37:49;3.20;79.40
55992;DHT22;66896;50.924;4.572;2023-02-28T08:40:15;3.30;80.60
55992;DHT22;66896;50.924;4.572;2023-02-28T08:42:44;3.50;78.30
55992;DHT22;66896;50.924;4.572;2023-02-28T08:45:10;3.70;77.60
55992;DHT22;66896;50.924;4.572;2023-02-28T08:47:35;3.60;76.70
55992;DHT22;66896;50.924;4.572;2023-02-28T08:50:01;4.00;75.90
55992;DHT22;66896;50.924;4.572;2023-02-28T08:52:27;4.30;72.60
55992;DHT22;66896;50.924;4.572;2023-02-28T08:54:53;4.70;72.00
55992;DHT22;66896;50.924;4.572;2023-02-28T08:57:19;4.70;71.00
55992;DHT22;66896;50.924;4.572;2023-02-28T08:59:44;5.20;71.40
55992;DHT22;66896;50.924;4.572;2023-02-28T09:02:12;5.30;67.50
55992;DHT22;66896;50.924;4.572;2023-02-28T09:04:38;5.10;68.00
55992;DHT22;66896;50.924;4.572;2023-02-28T09:07:03;5.50;66.60
55992;DHT22;66896;50.924;4.572;2023-02-28T09:09:29;5.60;65.60
55992;DHT22;66896;50.924;4.572;2023-02-28T09:11:55;5.90;65.40
55992;DHT22;66896;50.924;4.572;2023-02-28T09:14:21;5.90;63.80
55992;DHT22;66896;50.924;4.572;2023-02-28T09:16:46;6.00;63.50
55992;DHT22;66896;50.924;4.572;2023-02-28T09:19:12;6.00;61.70
55992;DHT22;66896;50.924;4.572;2023-02-28T09:21:38;6.30;61.00
55992;DHT22;66896;50.924;4.572;2023-02-28T09:24:04;6.50;61.60
55992;DHT22;66896;50.924;4.572;2023-02-28T09:26:29;7.20;59.10
55992;DHT22;66896;50.924;4.572;2023-02-28T09:28:55;7.60;59.00
55992;DHT22;66896;50.924;4.572;2023-02-28T09:31:25;7.10;56.20
55992;DHT22;66896;50.924;4.572;2023-02-28T09:33:51;7.10;55.50
55992;DHT22;66896;50.924;4.572;2023-02-28T09:36:17;7.10;56.10
55992;DHT22;66896;50.924;4.572;2023-02-28T09:38:43;7.40;56.20
55992;DHT22;66896;50.924;4.572;2023-02-28T09:41:16;8.00;54.60
55992;DHT22;66896;50.924;4.572;2023-02-28T09:43:46;7.80;53.70
55992;DHT22;66896;50.924;4.572;2023-02-28T09:46:24;8.20;51.40
55992;DHT22;66896;50.924;4.572;2023-02-28T09:48:50;8.30;52.00
55992;DHT22;66896;50.924;4.572;2023-02-28T09:53:42;8.70;50.30
55992;DHT22;66896;50.924;4.572;2023-02-28T09:56:28;8.40;49.90
55992;DHT22;66896;50.924;4.572;2023-02-28T09:58:58;8.60;49.90
55992;DHT22;66896;50.924;4.572;2023-02-28T10:01:35;9.10;50.70
55992;DHT22;66896;50.924;4.572;2023-02-28T10:06:50;9.50;46.40
55992;DHT22;66896;50.924;4.572;2023-02-28T10:11:41;9.10;46.20
55992;DHT22;66896;50.924;4.572;2023-02-28T10:14:19;9.10;45.00
55992;DHT22;66896;50.924;4.572;2023-02-28T10:17:03;9.30;42.90
55992;DHT22;66896;50.924;4.572;2023-02-28T10:24:45;10.50;39.40
55992;DHT22;66896;50.924;4.572;2023-02-28T10:29:43;10.50;39.10
55992;DHT22;66896;50.924;4.572;2023-02-28T10:32:09;11.00;37.80
55992;DHT22;66896;50.924;4.572;2023-02-28T10:34:36;10.80;37.80
55992;DHT22;66896;50.924;4.572;2023-02-28T10:37:01;10.40;38.70
55992;DHT22;66896;50.924;4.572;2023-02-28T10:39:44;10.80;39.80
55992;DHT22;66896;50.924;4.572;2023-02-28T10:42:21;11.00;38.80
55992;DHT22;66896;50.924;4.572;2023-02-28T10:44:47;11.80;37.50
55992;DHT22;66896;50.924;4.572;2023-02-28T10:47:16;11.10;37.40
55992;DHT22;66896;50.924;4.572;2023-02-28T10:49:49;10.40;39.40
55992;DHT22;66896;50.924;4.572;2023-02-28T10:52:31;10.70;39.00
55992;DHT22;66896;50.924;4.572;2023-02-28T10:55:13;10.50;39.20
55992;DHT22;66896;50.924;4.572;2023-02-28T10:57:39;10.50;39.70
55992;DHT22;66896;50.924;4.572;2023-02-28T11:00:11;11.50;38.80
55992;DHT22;66896;50.924;4.572;2023-02-28T11:02:38;12.00;37.10
55992;DHT22;66896;50.924;4.572;2023-02-28T11:05:30;12.00;35.60
55992;DHT22;66896;50.924;4.572;2023-02-28T11:07:59;11.50;38.00
55992;DHT22;66896;50.924;4.572;2023-02-28T11:10:28;12.20;36.00
55992;DHT22;66896;50.924;4.572;2023-02-28T11:12:56;12.10;34.40
55992;DHT22;66896;50.924;4.572;2023-02-28T11:17:54;11.70;37.00
55992;DHT22;66896;50.924;4.572;2023-02-28T11:20:22;11.90;35.70
55992;DHT22;66896;50.924;4.572;2023-02-28T11:22:48;12.90;34.10
55992;DHT22;66896;50.924;4.572;2023-02-28T11:25:25;12.50;33.00
55992;DHT22;66896;50.924;4.572;2023-02-28T11:27:52;12.40;33.40
55992;DHT22;66896;50.924;4.572;2023-02-28T11:32:50;12.60;33.60
55992;DHT22;66896;50.924;4.572;2023-02-28T11:37:41;12.60;34.60
55992;DHT22;66896;50.924;4.572;2023-02-28T11:40:15;12.30;34.30
55992;DHT22;66896;50.924;4.572;2023-02-28T11:50:31;12.10;35.10
55992;DHT22;66896;50.924;4.572;2023-02-28T11:53:03;11.60;34.70
55992;DHT22;66896;50.924;4.572;2023-02-28T11:55:37;11.30;36.60
55992;DHT22;66896;50.924;4.572;2023-02-28T12:05:46;11.70;35.00
55992;DHT22;66896;50.924;4.572;2023-02-28T12:10:53;12.10;35.30
55992;DHT22;66896;50.924;4.572;2023-02-28T12:13:41;12.50;33.00
55992;DHT22;66896;50.924;4.572;2023-02-28T12:21:13;14.70;31.80
55992;DHT22;66896;50.924;4.572;2023-02-28T12:26:35;15.40;29.30
55992;DHT22;66896;50.924;4.572;2023-02-28T12:29:04;15.50;29.20
55992;DHT22;66896;50.924;4.572;2023-02-28T12:31:33;14.40;28.30
55992;DHT22;66896;50.924;4.572;2023-02-28T12:34:03;14.50;29.80
55992;DHT22;66896;50.924;4.572;2023-02-28T12:36:30;13.10;30.40
55992;DHT22;66896;50.924;4.572;2023-02-28T12:39:00;12.40;31.70
55992;DHT22;66896;50.924;4.572;2023-02-28T12:41:34;11.70;33.40
55992;DHT22;66896;50.924;4.572;2023-02-28T12:44:09;11.20;35.30
55992;DHT22;66896;50.924;4.572;2023-02-28T12:46:38;12.10;33.50
55992;DHT22;66896;50.924;4.572;2023-02-28T12:49:06;12.60;32.70
55992;DHT22;66896;50.924;4.572;2023-02-28T12:51:33;13.40;32.80
55992;DHT22;66896;50.924;4.572;2023-02-28T12:59:05;14.40;29.50
55992;DHT22;66896;50.924;4.572;2023-02-28T13:01:39;15.40;29.30
55992;DHT22;66896;50.924;4.572;2023-02-28T13:09:37;13.90;31.30
55992;DHT22;66896;50.924;4.572;2023-02-28T13:12:12;14.00;29.10
55992;DHT22;66896;50.924;4.572;2023-02-28T13:14:38;14.00;29.60
55992;DHT22;66896;50.924;4.572;2023-02-28T13:19:37;13.90;29.80
55992;DHT22;66896;50.924;4.572;2023-02-28T13:22:03;13.60;30.00
55992;DHT22;66896;50.924;4.572;2023-02-28T13:27:10;13.40;30.00
55992;DHT22;66896;50.924;4.572;2023-02-28T13:29:37;13.10;30.70
55992;DHT22;66896;50.924;4.572;2023-02-28T13:34:32;13.40;31.00
55992;DHT22;66896;50.924;4.572;2023-02-28T13:47:27;13.40;30.40
55992;DHT22;66896;50.924;4.572;2023-02-28T13:49:54;13.80;30.10
55992;DHT22;66896;50.924;4.572;2023-02-28T13:52:20;13.00;31.20
55992;DHT22;66896;50.924;4.572;2023-02-28T14:04:53;13.90;31.40
55992;DHT22;66896;50.924;4.572;2023-02-28T14:07:26;12.80;32.00
55992;DHT22;66896;50.924;4.572;2023-02-28T14:09:57;13.90;31.30
55992;DHT22;66896;50.924;4.572;2023-02-28T14:15:26;13.30;32.30
55992;DHT22;66896;50.924;4.572;2023-02-28T14:17:53;13.00;33.00
55992;DHT22;66896;50.924;4.572;2023-02-28T14:20:19;12.60;32.10
55992;DHT22;66896;50.924;4.572;2023-02-28T14:27:39;11.30;35.90
55992;DHT22;66896;50.924;4.572;2023-02-28T14:30:49;11.90;36.10
55992;DHT22;66896;50.924;4.572;2023-02-28T14:35:40;10.40;35.90
55992;DHT22;66896;50.924;4.572;2023-02-28T14:38:13;11.10;37.50
55992;DHT22;66896;50.924;4.572;2023-02-28T14:40:39;11.20;37.70
55992;DHT22;66896;50.924;4.572;2023-02-28T14:43:06;12.60;33.90
55992;DHT22;66896;50.924;4.572;2023-02-28T14:45:43;12.50;33.00
55992;DHT22;66896;50.924;4.572;2023-02-28T14:48:15;12.90;32.20
55992;DHT22;66896;50.924;4.572;2023-02-28T14:50:41;12.50;33.40
55992;DHT22;66896;50.924;4.572;2023-02-28T14:53:15;11.90;34.10
55992;DHT22;66896;50.924;4.572;2023-02-28T14:55:46;11.80;34.40
55992;DHT22;66896;50.924;4.572;2023-02-28T14:58:31;11.60;35.10
55992;DHT22;66896;50.924;4.572;2023-02-28T15:00:58;11.60;34.90
55992;DHT22;66896;50.924;4.572;2023-02-28T15:03:27;11.80;34.40
55992;DHT22;66896;50.924;4.572;2023-02-28T15:06:02;10.40;37.20
55992;DHT22;66896;50.924;4.572;2023-02-28T15:08:28;9.30;39.50
55992;DHT22;66896;50.924;4.572;2023-02-28T15:10:55;8.80;40.40
55992;DHT22;66896;50.924;4.572;2023-02-28T15:13:22;8.20;42.50
55992;DHT22;66896;50.924;4.572;2023-02-28T15:15:55;8.60;43.10
55992;DHT22;66896;50.924;4.572;2023-02-28T15:21:06;8.30;43.80
55992;DHT22;66896;50.924;4.572;2023-02-28T15:23:33;8.00;43.50
55992;DHT22;66896;50.924;4.572;2023-02-28T15:26:00;7.80;43.50
55992;DHT22;66896;50.924;4.572;2023-02-28T15:28:26;7.70;44.80
55992;DHT22;66896;50.924;4.572;2023-02-28T15:31:02;7.80;45.00
55992;DHT22;66896;50.924;4.572;2023-02-28T15:33:31;7.50;44.10
55992;DHT22;66896;50.924;4.572;2023-02-28T15:36:04;7.20;45.60
55992;DHT22;66896;50.924;4.572;2023-02-28T15:38:32;7.10;46.70
55992;DHT22;66896;50.924;4.572;2023-02-28T15:40:58;6.90;46.70
55992;DHT22;66896;50.924;4.572;2023-02-28T15:43:31;6.90;47.30
55992;DHT22;66896;50.924;4.572;2023-02-28T15:46:10;6.80;47.10
55992;DHT22;66896;50.924;4.572;2023-02-28T15:48:37;6.70;47.70
55992;DHT22;66896;50.924;4.572;2023-02-28T15:53:30;6.80;47.40
55992;DHT22;66896;50.924;4.572;2023-02-28T15:55:59;6.60;48.00
55992;DHT22;66896;50.924;4.572;2023-02-28T15:58:25;6.60;48.30
55992;DHT22;66896;50.924;4.572;2023-02-28T16:01:33;6.50;48.80
55992;DHT22;66896;50.924;4.572;2023-02-28T16:03:41;6.60;48.50
55992;DHT22;66896;50.924;4.572;2023-02-28T16:06:09;6.40;48.10
55992;DHT22;66896;50.924;4.572;2023-02-28T16:08:35;6.40;48.30
55992;DHT22;66896;50.924;4.572;2023-02-28T16:11:00;6.30;49.20
55992;DHT22;66896;50.924;4.572;2023-02-28T16:13:26;6.20;49.40
55992;DHT22;66896;50.924;4.572;2023-02-28T16:15:51;6.10;50.40
55992;DHT22;66896;50.924;4.572;2023-02-28T16:18:17;6.10;51.10
55992;DHT22;66896;50.924;4.572;2023-02-28T16:20:43;6.20;50.80
55992;DHT22;66896;50.924;4.572;2023-02-28T16:23:09;6.20;50.20
55992;DHT22;66896;50.924;4.572;2023-02-28T16:25:39;6.10;50.40
55992;DHT22;66896;50.924;4.572;2023-02-28T16:28:10;6.00;51.20
55992;DHT22;66896;50.924;4.572;2023-02-28T16:30:37;6.00;51.60
55992;DHT22;66896;50.924;4.572;2023-02-28T16:33:03;6.00;51.20
55992;DHT22;66896;50.924;4.572;2023-02-28T16:35:29;6.00;51.10
55992;DHT22;66896;50.924;4.572;2023-02-28T16:37:55;5.90;51.50
55992;DHT22;66896;50.924;4.572;2023-02-28T16:40:21;5.90;51.40
55992;DHT22;66896;50.924;4.572;2023-02-28T16:42:48;5.80;51.50
55992;DHT22;66896;50.924;4.572;2023-02-28T16:45:20;5.80;51.30
55992;DHT22;66896;50.924;4.572;2023-02-28T16:47:46;5.60;52.00
55992;DHT22;66896;50.924;4.572;2023-02-28T16:50:15;5.60;52.00
55992;DHT22;66896;50.924;4.572;2023-02-28T16:52:42;5.60;52.10
55992;DHT22;66896;50.924;4.572;2023-02-28T16:55:07;5.60;52.10
55992;DHT22;66896;50.924;4.572;2023-02-28T16:57:33;5.40;52.30
55992;DHT22;66896;50.924;4.572;2023-02-28T16:59:59;5.30;52.50
55992;DHT22;66896;50.924;4.572;2023-02-28T17:02:24;5.20;53.00
55992;DHT22;66896;50.924;4.572;2023-02-28T17:04:50;5.10;53.60
55992;DHT22;66896;50.924;4.572;2023-02-28T17:07:16;5.10;53.10
55992;DHT22;66896;50.924;4.572;2023-02-28T17:09:42;5.20;53.70
55992;DHT22;66896;50.924;4.572;2023-02-28T17:12:08;5.10;54.20
55992;DHT22;66896;50.924;4.572;2023-02-28T17:14:34;5.10;54.70
55992;DHT22;66896;50.924;4.572;2023-02-28T17:17:00;5.10;54.00
55992;DHT22;66896;50.924;4.572;2023-02-28T17:19:26;5.00;54.70
55992;DHT22;66896;50.924;4.572;2023-02-28T17:21:51;4.80;55.50
55992;DHT22;66896;50.924;4.572;2023-02-28T17:24:18;4.90;55.70
55992;DHT22;66896;50.924;4.572;2023-02-28T17:26:43;4.90;55.70
55992;DHT22;66896;50.924;4.572;2023-02-28T17:32:06;4.60;57.00
55992;DHT22;66896;50.924;4.572;2023-02-28T17:34:32;4.40;57.80
55992;DHT22;66896;50.924;4.572;2023-02-28T17:36:57;4.20;58.30
55992;DHT22;66896;50.924;4.572;2023-02-28T17:39:23;4.20;59.20
55992;DHT22;66896;50.924;4.572;2023-02-28T17:41:52;4.20;59.70
55992;DHT22;66896;50.924;4.572;2023-02-28T17:44:18;4.10;60.30
55992;DHT22;66896;50.924;4.572;2023-02-28T17:46:44;4.00;60.10
55992;DHT22;66896;50.924;4.572;2023-02-28T17:49:10;3.90;60.60
55992;DHT22;66896;50.924;4.572;2023-02-28T17:51:36;3.90;60.80
55992;DHT22;66896;50.924;4.572;2023-02-28T17:54:02;3.70;62.00
55992;DHT22;66896;50.924;4.572;2023-02-28T17:56:27;3.70;61.10
55992;DHT22;66896;50.924;4.572;2023-02-28T17:58:53;3.70;61.20
55992;DHT22;66896;50.924;4.572;2023-02-28T18:01:20;3.60;62.00
55992;DHT22;66896;50.924;4.572;2023-02-28T18:03:46;3.60;62.00
55992;DHT22;66896;50.924;4.572;2023-02-28T18:06:16;3.60;61.40
55992;DHT22;66896;50.924;4.572;2023-02-28T18:08:44;3.50;62.20
55992;DHT22;66896;50.924;4.572;2023-02-28T18:11:10;3.30;62.20
55992;DHT22;66896;50.924;4.572;2023-02-28T18:13:45;3.20;62.80